sensor_id;sensor_type;location;lat;lon;timestamp;P1;durP1;ratioP1;P2;durP2;ratioP2
38318;SDS011;24121;53.536;10.224;2024-03-07T07:59:00;15.93;;;10.10;;
38318;SDS011;24121;53.536;10.224;2024-03-07T08:01:25;18.65;;;11.05;;
38318;SDS011;24121;53.536;10.224;2024-03-07T08:03:50;16.88;;;11.00;;
38318;SDS011;24121;53.536;10.224;2024-03-07T08:06:16;17.70;;;10.55;;
38318;SDS011;24121;53.536;10.224;2024-03-07T08:08:42;16.52;;;10.13;;
38318;SDS011;24121;53.536;10.224;2024-03-07T08:11:07;17.65;;;10.02;;
38318;SDS011;24121;53.536;10.224;2024-03-07T08:13:34;18.50;;;10.57;;
38318;SDS011;24121;53.536;10.224;2024-03-07T08:16:00;17.02;;;10.90;;
38318;SDS011;24121;53.536;10.224;2024-03-07T08:18:25;15.00;;;10.18;;
38318;SDS011;24121;53.536;10.224;2024-03-07T08:20:52;15.73;;;10.20;;
38318;SDS011;24121;53.536;10.224;2024-03-07T08:23:17;14.45;;;9.98;;
38318;SDS011;24121;53.536;10.224;2024-03-07T08:25:42;16.38;;;10.20;;
38318;SDS011;24121;53.536;10.224;2024-03-07T08:28:07;15.05;;;9.15;;
38318;SDS011;24121;53.536;10.224;2024-03-07T08:30:33;14.10;;;9.27;;
38318;SDS011;24121;53.536;10.224;2024-03-07T08:33:00;15.98;;;10.45;;
38318;SDS011;24121;53.536;10.224;2024-03-07T08:35:27;12.70;;;9.32;;
38318;SDS011;24121;53.536;10.224;2024-03-07T08:37:54;15.25;;;9.82;;
38318;SDS011;24121;53.536;10.224;2024-03-07T08:40:21;14.65;;;8.90;;
38318;SDS011;24121;53.536;10.224;2024-03-07T08:42:47;15.88;;;10.75;;
38318;SDS011;24121;53.536;10.224;2024-03-07T08:45:15;17.35;;;10.52;;
38318;SDS011;24121;53.536;10.224;2024-03-07T08:47:47;17.60;;;10.77;;
38318;SDS011;24121;53.536;10.224;2024-03-07T08:50:14;17.17;;;11.77;;
38318;SDS011;24121;53.536;10.224;2024-03-07T08:52:40;18.38;;;11.80;;
38318;SDS011;24121;53.536;10.224;2024-03-07T08:55:06;17.00;;;11.65;;
38318;SDS011;24121;53.536;10.224;2024-03-07T08:57:38;21.50;;;12.20;;
38318;SDS011;24121;53.536;10.224;2024-03-07T09:00:07;19.27;;;12.80;;
38318;SDS011;24121;53.536;10.224;2024-03-07T09:02:40;19.50;;;12.77;;
38318;SDS011;24121;53.536;10.224;2024-03-07T09:05:07;19.35;;;13.45;;
38318;SDS011;24121;53.536;10.224;2024-03-07T09:07:35;22.55;;;13.73;;
38318;SDS011;24121;53.536;10.224;2024-03-07T09:10:00;21.65;;;13.70;;
38318;SDS011;24121;53.536;10.224;2024-03-07T09:12:26;22.92;;;14.00;;
38318;SDS011;24121;53.536;10.224;2024-03-07T09:14:51;22.77;;;12.60;;
38318;SDS011;24121;53.536;10.224;2024-03-07T09:17:17;18.38;;;12.68;;
38318;SDS011;24121;53.536;10.224;2024-03-07T09:19:42;20.73;;;12.82;;
38318;SDS011;24121;53.536;10.224;2024-03-07T09:22:08;19.98;;;13.15;;
38318;SDS011;24121;53.536;10.224;2024-03-07T09:24:33;19.77;;;12.85;;
38318;SDS011;24121;53.536;10.224;2024-03-07T09:26:59;21.58;;;13.30;;
38318;SDS011;24121;53.536;10.224;2024-03-07T09:29:25;22.73;;;13.65;;
38318;SDS011;24121;53.536;10.224;2024-03-07T09:31:51;20.42;;;13.20;;
38318;SDS011;24121;53.536;10.224;2024-03-07T09:34:17;24.63;;;13.85;;
38318;SDS011;24121;53.536;10.224;2024-03-07T09:36:43;21.98;;;13.65;;
38318;SDS011;24121;53.536;10.224;2024-03-07T09:39:09;20.77;;;13.32;;
38318;SDS011;24121;53.536;10.224;2024-03-07T09:41:34;20.58;;;13.18;;
38318;SDS011;24121;53.536;10.224;2024-03-07T09:44:00;18.73;;;13.43;;
38318;SDS011;24121;53.536;10.224;2024-03-07T09:46:26;21.55;;;14.02;;
38318;SDS011;24121;53.536;10.224;2024-03-07T09:48:51;22.35;;;14.00;;
38318;SDS011;24121;53.536;10.224;2024-03-07T09:51:19;21.63;;;13.98;;
38318;SDS011;24121;53.536;10.224;2024-03-07T09:53:48;20.50;;;13.02;;
38318;SDS011;24121;53.536;10.224;2024-03-07T09:56:17;19.73;;;14.05;;
38318;SDS011;24121;53.536;10.224;2024-03-07T09:58:42;19.48;;;13.30;;
38318;SDS011;24121;53.536;10.224;2024-03-07T10:01:07;23.17;;;13.77;;
38318;SDS011;24121;53.536;10.224;2024-03-07T10:03:35;22.88;;;14.90;;
38318;SDS011;24121;53.536;10.224;2024-03-07T10:06:01;22.35;;;15.38;;
38318;SDS011;24121;53.536;10.224;2024-03-07T10:08:26;25.08;;;15.40;;
38318;SDS011;24121;53.536;10.224;2024-03-07T10:10:52;21.95;;;14.60;;
38318;SDS011;24121;53.536;10.224;2024-03-07T10:13:19;26.55;;;15.48;;
38318;SDS011;24121;53.536;10.224;2024-03-07T10:15:47;23.05;;;13.68;;
38318;SDS011;24121;53.536;10.224;2024-03-07T10:18:13;22.65;;;14.25;;
38318;SDS011;24121;53.536;10.224;2024-03-07T10:20:39;17.92;;;12.88;;
38318;SDS011;24121;53.536;10.224;2024-03-07T10:23:04;22.75;;;15.25;;
38318;SDS011;24121;53.536;10.224;2024-03-07T10:25:32;23.80;;;13.00;;
38318;SDS011;24121;53.536;10.224;2024-03-07T10:27:58;19.17;;;13.35;;
38318;SDS011;24121;53.536;10.224;2024-03-07T10:30:23;19.17;;;12.82;;
38318;SDS011;24121;53.536;10.224;2024-03-07T10:32:56;18.50;;;12.35;;
38318;SDS011;24121;53.536;10.224;2024-03-07T10:35:23;24.92;;;14.57;;
38318;SDS011;24121;53.536;10.224;2024-03-07T10:37:49;24.02;;;13.77;;
38318;SDS011;24121;53.536;10.224;2024-03-07T10:40:15;20.48;;;13.38;;
38318;SDS011;24121;53.536;10.224;2024-03-07T10:42:44;20.48;;;13.20;;
38318;SDS011;24121;53.536;10.224;2024-03-07T10:45:11;20.23;;;12.63;;
38318;SDS011;24121;53.536;10.224;2024-03-07T10:47:37;20.75;;;13.73;;
38318;SDS011;24121;53.536;10.224;2024-03-07T10:50:05;21.92;;;12.93;;
38318;SDS011;24121;53.536;10.224;2024-03-07T10:52:40;21.73;;;13.77;;
38318;SDS011;24121;53.536;10.224;2024-03-07T10:55:13;22.98;;;14.43;;
38318;SDS011;24121;53.536;10.224;2024-03-07T10:57:50;20.38;;;13.88;;
38318;SDS011;24121;53.536;10.224;2024-03-07T11:00:21;21.13;;;13.55;;
38318;SDS011;24121;53.536;10.224;2024-03-07T11:02:55;22.27;;;14.07;;
38318;SDS011;24121;53.536;10.224;2024-03-07T11:05:21;20.23;;;14.13;;
38318;SDS011;24121;53.536;10.224;2024-03-07T11:07:49;25.23;;;14.75;;
38318;SDS011;24121;53.536;10.224;2024-03-07T11:10:15;21.58;;;14.30;;
38318;SDS011;24121;53.536;10.224;2024-03-07T11:12:42;23.75;;;14.73;;
38318;SDS011;24121;53.536;10.224;2024-03-07T11:15:09;24.95;;;15.50;;
38318;SDS011;24121;53.536;10.224;2024-03-07T11:17:44;21.73;;;14.63;;
38318;SDS011;24121;53.536;10.224;2024-03-07T11:20:24;20.80;;;13.57;;
38318;SDS011;24121;53.536;10.224;2024-03-07T11:22:50;20.52;;;13.60;;
38318;SDS011;24121;53.536;10.224;2024-03-07T11:25:19;20.63;;;14.48;;
38318;SDS011;24121;53.536;10.224;2024-03-07T11:27:55;21.33;;;15.18;;
38318;SDS011;24121;53.536;10.224;2024-03-07T11:30:22;22.98;;;15.02;;
38318;SDS011;24121;53.536;10.224;2024-03-07T11:32:49;24.05;;;14.50;;
38318;SDS011;24121;53.536;10.224;2024-03-07T11:35:18;26.77;;;15.52;;
38318;SDS011;24121;53.536;10.224;2024-03-07T11:37:57;21.33;;;14.65;;
38318;SDS011;24121;53.536;10.224;2024-03-07T11:42:49;24.10;;;15.57;;
38318;SDS011;24121;53.536;10.224;2024-03-07T11:45:16;22.70;;;14.75;;
38318;SDS011;24121;53.536;10.224;2024-03-07T11:47:50;22.33;;;14.43;;
38318;SDS011;24121;53.536;10.224;2024-03-07T11:50:26;26.35;;;15.43;;
38318;SDS011;24121;53.536;10.224;2024-03-07T11:52:54;22.92;;;14.63;;
38318;SDS011;24121;53.536;10.224;2024-03-07T11:55:23;23.98;;;14.65;;
38318;SDS011;24121;53.536;10.224;2024-03-07T11:57:49;22.25;;;14.88;;
38318;SDS011;24121;53.536;10.224;2024-03-07T12:00:16;26.13;;;14.95;;
38318;SDS011;24121;53.536;10.224;2024-03-07T12:02:43;27.35;;;16.02;;
38318;SDS011;24121;53.536;10.224;2024-03-07T12:05:09;23.25;;;14.57;;
38318;SDS011;24121;53.536;10.224;2024-03-07T12:07:34;22.33;;;16.02;;
38318;SDS011;24121;53.536;10.224;2024-03-07T12:10:00;24.40;;;16.45;;
38318;SDS011;24121;53.536;10.224;2024-03-07T12:12:28;23.20;;;15.32;;
38318;SDS011;24121;53.536;10.224;2024-03-07T12:14:54;23.38;;;15.48;;
38318;SDS011;24121;53.536;10.224;2024-03-07T12:17:20;21.20;;;14.13;;
38318;SDS011;24121;53.536;10.224;2024-03-07T12:19:46;25.38;;;15.40;;
38318;SDS011;24121;53.536;10.224;2024-03-07T12:22:12;24.98;;;15.38;;
38318;SDS011;24121;53.536;10.224;2024-03-07T12:24:40;19.23;;;13.57;;
38318;SDS011;24121;53.536;10.224;2024-03-07T12:27:07;25.85;;;16.80;;
38318;SDS011;24121;53.536;10.224;2024-03-07T12:29:34;23.50;;;16.02;;
38318;SDS011;24121;53.536;10.224;2024-03-07T12:32:01;24.60;;;16.52;;
38318;SDS011;24121;53.536;10.224;2024-03-07T12:34:26;22.90;;;15.38;;
38318;SDS011;24121;53.536;10.224;2024-03-07T12:36:52;24.55;;;16.58;;
38318;SDS011;24121;53.536;10.224;2024-03-07T12:39:27;23.02;;;15.13;;
38318;SDS011;24121;53.536;10.224;2024-03-07T12:41:57;24.42;;;15.35;;
38318;SDS011;24121;53.536;10.224;2024-03-07T12:44:23;26.35;;;16.30;;
38318;SDS011;24121;53.536;10.224;2024-03-07T12:46:48;23.10;;;15.77;;
38318;SDS011;24121;53.536;10.224;2024-03-07T12:51:44;26.80;;;16.50;;
38318;SDS011;24121;53.536;10.224;2024-03-07T12:54:09;26.30;;;16.23;;
38318;SDS011;24121;53.536;10.224;2024-03-07T12:56:35;23.30;;;16.15;;
38318;SDS011;24121;53.536;10.224;2024-03-07T12:59:02;24.58;;;16.42;;
38318;SDS011;24121;53.536;10.224;2024-03-07T13:01:34;24.15;;;16.13;;
38318;SDS011;24121;53.536;10.224;2024-03-07T13:04:03;28.30;;;17.30;;
38318;SDS011;24121;53.536;10.224;2024-03-07T13:06:29;25.67;;;16.52;;
38318;SDS011;24121;53.536;10.224;2024-03-07T13:08:55;23.63;;;16.17;;
38318;SDS011;24121;53.536;10.224;2024-03-07T13:11:23;24.50;;;16.00;;
38318;SDS011;24121;53.536;10.224;2024-03-07T13:13:52;22.88;;;16.23;;
38318;SDS011;24121;53.536;10.224;2024-03-07T13:16:18;24.02;;;15.93;;
38318;SDS011;24121;53.536;10.224;2024-03-07T13:18:43;22.65;;;16.33;;
38318;SDS011;24121;53.536;10.224;2024-03-07T13:21:08;22.75;;;15.63;;
38318;SDS011;24121;53.536;10.224;2024-03-07T13:23:35;25.15;;;16.30;;
38318;SDS011;24121;53.536;10.224;2024-03-07T13:26:04;24.60;;;16.30;;
38318;SDS011;24121;53.536;10.224;2024-03-07T13:28:33;23.55;;;16.27;;
38318;SDS011;24121;53.536;10.224;2024-03-07T13:30:59;23.10;;;15.20;;
38318;SDS011;24121;53.536;10.224;2024-03-07T13:33:24;24.55;;;15.60;;
38318;SDS011;24121;53.536;10.224;2024-03-07T13:35:50;24.85;;;15.98;;
38318;SDS011;24121;53.536;10.224;2024-03-07T13:38:16;24.23;;;16.27;;
38318;SDS011;24121;53.536;10.224;2024-03-07T13:40:42;22.20;;;14.93;;
38318;SDS011;24121;53.536;10.224;2024-03-07T13:43:07;25.52;;;17.25;;
38318;SDS011;24121;53.536;10.224;2024-03-07T13:45:33;25.85;;;16.05;;
38318;SDS011;24121;53.536;10.224;2024-03-07T13:48:06;21.45;;;15.27;;
38318;SDS011;24121;53.536;10.224;2024-03-07T13:50:33;25.15;;;16.02;;
38318;SDS011;24121;53.536;10.224;2024-03-07T13:52:59;21.08;;;14.63;;
38318;SDS011;24121;53.536;10.224;2024-03-07T13:55:49;22.35;;;14.77;;
38318;SDS011;24121;53.536;10.224;2024-03-07T14:04:12;23.67;;;16.25;;
38318;SDS011;24121;53.536;10.224;2024-03-07T14:09:17;23.43;;;16.13;;
38318;SDS011;24121;53.536;10.224;2024-03-07T14:14:52;26.50;;;16.00;;
38318;SDS011;24121;53.536;10.224;2024-03-07T14:20:36;22.05;;;16.23;;
38318;SDS011;24121;53.536;10.224;2024-03-07T14:31:24;20.38;;;14.75;;
38318;SDS011;24121;53.536;10.224;2024-03-07T14:34:00;20.70;;;14.57;;
38318;SDS011;24121;53.536;10.224;2024-03-07T14:36:38;20.58;;;14.15;;
38318;SDS011;24121;53.536;10.224;2024-03-07T14:39:10;18.42;;;13.80;;
38318;SDS011;24121;53.536;10.224;2024-03-07T14:42:01;21.50;;;13.98;;
38318;SDS011;24121;53.536;10.224;2024-03-07T14:44:25;24.25;;;15.00;;
38318;SDS011;24121;53.536;10.224;2024-03-07T14:47:04;19.15;;;13.57;;
38318;SDS011;24121;53.536;10.224;2024-03-07T14:49:31;23.10;;;14.93;;
38318;SDS011;24121;53.536;10.224;2024-03-07T14:51:56;20.20;;;14.93;;
38318;SDS011;24121;53.536;10.224;2024-03-07T14:54:22;20.65;;;14.35;;
38318;SDS011;24121;53.536;10.224;2024-03-07T14:56:47;20.85;;;14.43;;
38318;SDS011;24121;53.536;10.224;2024-03-07T14:59:13;21.55;;;13.90;;
38318;SDS011;24121;53.536;10.224;2024-03-07T15:01:38;20.42;;;12.90;;
38318;SDS011;24121;53.536;10.224;2024-03-07T15:04:04;21.60;;;14.93;;
38318;SDS011;24121;53.536;10.224;2024-03-07T15:06:32;21.50;;;14.20;;
38318;SDS011;24121;53.536;10.224;2024-03-07T15:09:00;20.00;;;13.80;;
38318;SDS011;24121;53.536;10.224;2024-03-07T15:11:35;24.00;;;14.02;;
38318;SDS011;24121;53.536;10.224;2024-03-07T15:14:07;20.50;;;13.90;;
38318;SDS011;24121;53.536;10.224;2024-03-07T15:16:36;21.70;;;14.20;;
38318;SDS011;24121;53.536;10.224;2024-03-07T15:19:05;20.10;;;13.77;;
38318;SDS011;24121;53.536;10.224;2024-03-07T15:21:32;23.98;;;15.68;;
38318;SDS011;24121;53.536;10.224;2024-03-07T15:23:58;22.75;;;13.32;;
38318;SDS011;24121;53.536;10.224;2024-03-07T15:26:23;19.92;;;13.32;;
38318;SDS011;24121;53.536;10.224;2024-03-07T15:28:49;19.40;;;13.57;;
38318;SDS011;24121;53.536;10.224;2024-03-07T15:31:16;18.83;;;12.93;;
38318;SDS011;24121;53.536;10.224;2024-03-07T15:33:44;17.88;;;12.18;;
38318;SDS011;24121;53.536;10.224;2024-03-07T15:36:13;19.20;;;13.05;;
38318;SDS011;24121;53.536;10.224;2024-03-07T15:38:38;18.58;;;12.45;;
38318;SDS011;24121;53.536;10.224;2024-03-07T15:41:04;18.92;;;12.30;;
38318;SDS011;24121;53.536;10.224;2024-03-07T15:43:31;18.33;;;11.73;;
38318;SDS011;24121;53.536;10.224;2024-03-07T15:45:57;15.95;;;11.38;;
38318;SDS011;24121;53.536;10.224;2024-03-07T15:48:22;15.45;;;11.35;;
38318;SDS011;24121;53.536;10.224;2024-03-07T15:50:51;19.73;;;12.63;;
38318;SDS011;24121;53.536;10.224;2024-03-07T15:53:18;18.02;;;12.48;;
38318;SDS011;24121;53.536;10.224;2024-03-07T15:55:43;19.42;;;12.23;;
38318;SDS011;24121;53.536;10.224;2024-03-07T15:58:09;18.83;;;12.88;;
38318;SDS011;24121;53.536;10.224;2024-03-07T16:00:35;18.52;;;12.20;;
38318;SDS011;24121;53.536;10.224;2024-03-07T16:03:04;19.60;;;12.63;;
38318;SDS011;24121;53.536;10.224;2024-03-07T16:05:33;21.10;;;12.45;;
38318;SDS011;24121;53.536;10.224;2024-03-07T16:08:01;20.42;;;13.07;;
38318;SDS011;24121;53.536;10.224;2024-03-07T16:10:28;23.88;;;13.90;;
38318;SDS011;24121;53.536;10.224;2024-03-07T16:12:55;25.40;;;14.85;;
38318;SDS011;24121;53.536;10.224;2024-03-07T16:15:22;22.20;;;13.65;;
38318;SDS011;24121;53.536;10.224;2024-03-07T16:17:48;24.45;;;14.25;;
38318;SDS011;24121;53.536;10.224;2024-03-07T16:20:14;26.45;;;16.13;;
38318;SDS011;24121;53.536;10.224;2024-03-07T16:22:40;27.27;;;16.58;;
38318;SDS011;24121;53.536;10.224;2024-03-07T16:25:13;31.05;;;17.73;;
38318;SDS011;24121;53.536;10.224;2024-03-07T16:27:40;29.80;;;17.33;;
38318;SDS011;24121;53.536;10.224;2024-03-07T16:32:40;28.83;;;18.15;;
38318;SDS011;24121;53.536;10.224;2024-03-07T16:35:07;33.10;;;18.98;;
38318;SDS011;24121;53.536;10.224;2024-03-07T16:37:36;34.03;;;19.65;;
38318;SDS011;24121;53.536;10.224;2024-03-07T16:40:09;38.05;;;19.98;;
38318;SDS011;24121;53.536;10.224;2024-03-07T16:42:36;31.98;;;17.42;;
38318;SDS011;24121;53.536;10.224;2024-03-07T16:45:08;37.35;;;20.88;;
38318;SDS011;24121;53.536;10.224;2024-03-07T16:47:39;34.53;;;19.23;;
38318;SDS011;24121;53.536;10.224;2024-03-07T16:50:05;31.70;;;18.80;;
38318;SDS011;24121;53.536;10.224;2024-03-07T16:52:33;33.70;;;19.45;;
38318;SDS011;24121;53.536;10.224;2024-03-07T16:54:58;33.55;;;19.88;;
38318;SDS011;24121;53.536;10.224;2024-03-07T16:57:24;40.60;;;21.40;;
38318;SDS011;24121;53.536;10.224;2024-03-07T16:59:50;38.50;;;21.02;;
38318;SDS011;24121;53.536;10.224;2024-03-07T17:02:15;37.88;;;20.13;;
38318;SDS011;24121;53.536;10.224;2024-03-07T17:04:40;38.70;;;20.38;;
38318;SDS011;24121;53.536;10.224;2024-03-07T17:07:06;37.30;;;19.73;;
38318;SDS011;24121;53.536;10.224;2024-03-07T17:09:31;34.78;;;18.88;;
38318;SDS011;24121;53.536;10.224;2024-03-07T17:11:57;38.58;;;21.90;;
38318;SDS011;24121;53.536;10.224;2024-03-07T17:14:22;39.70;;;21.13;;
38318;SDS011;24121;53.536;10.224;2024-03-07T17:16:48;37.72;;;20.48;;
38318;SDS011;24121;53.536;10.224;2024-03-07T17:19:14;38.88;;;22.40;;
38318;SDS011;24121;53.536;10.224;2024-03-07T17:21:39;36.90;;;21.00;;
38318;SDS011;24121;53.536;10.224;2024-03-07T17:24:05;34.83;;;20.48;;
38318;SDS011;24121;53.536;10.224;2024-03-07T17:26:30;35.63;;;20.90;;
38318;SDS011;24121;53.536;10.224;2024-03-07T17:28:56;38.28;;;21.33;;
38318;SDS011;24121;53.536;10.224;2024-03-07T17:31:21;38.00;;;20.40;;
38318;SDS011;24121;53.536;10.224;2024-03-07T17:33:47;32.15;;;19.23;;
38318;SDS011;24121;53.536;10.224;2024-03-07T17:36:12;32.78;;;19.33;;
38318;SDS011;24121;53.536;10.224;2024-03-07T17:38:38;34.72;;;20.58;;
38318;SDS011;24121;53.536;10.224;2024-03-07T17:41:03;35.33;;;20.52;;
38318;SDS011;24121;53.536;10.224;2024-03-07T17:43:30;33.50;;;20.73;;
38318;SDS011;24121;53.536;10.224;2024-03-07T17:45:56;32.28;;;18.95;;
38318;SDS011;24121;53.536;10.224;2024-03-07T17:48:24;34.13;;;19.95;;
38318;SDS011;24121;53.536;10.224;2024-03-07T17:50:50;29.80;;;18.98;;
38318;SDS011;24121;53.536;10.224;2024-03-07T17:53:16;31.58;;;19.25;;
38318;SDS011;24121;53.536;10.224;2024-03-07T17:55:41;32.78;;;20.00;;
38318;SDS011;24121;53.536;10.224;2024-03-07T17:58:08;31.58;;;19.73;;
38318;SDS011;24121;53.536;10.224;2024-03-07T18:00:35;29.02;;;19.08;;
38318;SDS011;24121;53.536;10.224;2024-03-07T18:03:04;25.63;;;17.17;;
38318;SDS011;24121;53.536;10.224;2024-03-07T18:05:30;26.42;;;17.13;;
38318;SDS011;24121;53.536;10.224;2024-03-07T18:07:59;24.55;;;16.67;;
38318;SDS011;24121;53.536;10.224;2024-03-07T18:10:25;23.85;;;16.45;;
38318;SDS011;24121;53.536;10.224;2024-03-07T18:12:56;22.77;;;16.17;;
38318;SDS011;24121;53.536;10.224;2024-03-07T18:15:21;25.27;;;16.02;;
38318;SDS011;24121;53.536;10.224;2024-03-07T18:17:52;25.60;;;17.20;;
38318;SDS011;24121;53.536;10.224;2024-03-07T18:20:20;23.63;;;16.00;;
38318;SDS011;24121;53.536;10.224;2024-03-07T18:22:46;30.45;;;18.85;;
38318;SDS011;24121;53.536;10.224;2024-03-07T18:25:15;30.08;;;18.45;;
38318;SDS011;24121;53.536;10.224;2024-03-07T18:27:45;23.33;;;15.95;;
38318;SDS011;24121;53.536;10.224;2024-03-07T18:30:13;26.92;;;17.27;;
38318;SDS011;24121;53.536;10.224;2024-03-07T18:32:40;26.05;;;16.38;;
38318;SDS011;24121;53.536;10.224;2024-03-07T18:35:06;25.38;;;16.98;;
38318;SDS011;24121;53.536;10.224;2024-03-07T18:37:32;22.23;;;15.20;;
38318;SDS011;24121;53.536;10.224;2024-03-07T18:39:59;27.23;;;16.58;;
38318;SDS011;24121;53.536;10.224;2024-03-07T18:42:26;24.63;;;16.05;;
38318;SDS011;24121;53.536;10.224;2024-03-07T18:44:55;20.40;;;15.40;;
38318;SDS011;24121;53.536;10.224;2024-03-07T18:47:22;26.83;;;14.57;;
38318;SDS011;24121;53.536;10.224;2024-03-07T18:49:47;25.50;;;16.25;;
38318;SDS011;24121;53.536;10.224;2024-03-07T18:52:13;24.20;;;15.75;;
38318;SDS011;24121;53.536;10.224;2024-03-07T18:54:39;19.58;;;14.35;;
38318;SDS011;24121;53.536;10.224;2024-03-07T18:57:06;23.42;;;15.45;;
38318;SDS011;24121;53.536;10.224;2024-03-07T18:59:35;24.08;;;15.15;;
38318;SDS011;24121;53.536;10.224;2024-03-07T19:02:01;24.63;;;16.00;;
38318;SDS011;24121;53.536;10.224;2024-03-07T19:04:35;24.02;;;15.38;;
38318;SDS011;24121;53.536;10.224;2024-03-07T19:07:00;22.02;;;14.70;;
38318;SDS011;24121;53.536;10.224;2024-03-07T19:09:32;23.65;;;15.48;;
38318;SDS011;24121;53.536;10.224;2024-03-07T19:11:57;25.05;;;15.82;;
38318;SDS011;24121;53.536;10.224;2024-03-07T19:14:25;25.63;;;16.50;;
38318;SDS011;24121;53.536;10.224;2024-03-07T19:16:51;24.05;;;15.85;;
38318;SDS011;24121;53.536;10.224;2024-03-07T19:19:18;23.45;;;15.68;;
38318;SDS011;24121;53.536;10.224;2024-03-07T19:21:43;23.95;;;15.70;;
38318;SDS011;24121;53.536;10.224;2024-03-07T19:24:09;21.48;;;14.13;;
38318;SDS011;24121;53.536;10.224;2024-03-07T19:26:40;22.50;;;13.90;;
38318;SDS011;24121;53.536;10.224;2024-03-07T19:29:08;21.83;;;14.75;;
38318;SDS011;24121;53.536;10.224;2024-03-07T19:31:33;21.98;;;14.77;;
38318;SDS011;24121;53.536;10.224;2024-03-07T19:33:59;23.85;;;15.00;;
38318;SDS011;24121;53.536;10.224;2024-03-07T19:36:25;19.80;;;13.88;;
38318;SDS011;24121;53.536;10.224;2024-03-07T19:38:50;24.70;;;14.48;;
38318;SDS011;24121;53.536;10.224;2024-03-07T19:41:17;24.58;;;15.77;;
38318;SDS011;24121;53.536;10.224;2024-03-07T19:43:42;22.92;;;15.77;;
38318;SDS011;24121;53.536;10.224;2024-03-07T19:46:07;25.58;;;16.08;;
38318;SDS011;24121;53.536;10.224;2024-03-07T19:48:33;23.40;;;15.48;;
38318;SDS011;24121;53.536;10.224;2024-03-07T19:50:58;27.48;;;16.42;;
38318;SDS011;24121;53.536;10.224;2024-03-07T19:53:25;28.38;;;17.08;;
38318;SDS011;24121;53.536;10.224;2024-03-07T19:55:50;25.38;;;16.40;;
38318;SDS011;24121;53.536;10.224;2024-03-07T19:58:16;26.73;;;15.85;;
38318;SDS011;24121;53.536;10.224;2024-03-07T20:00:42;25.77;;;16.45;;
38318;SDS011;24121;53.536;10.224;2024-03-07T20:03:11;24.55;;;15.85;;
38318;SDS011;24121;53.536;10.224;2024-03-07T20:05:39;25.23;;;16.48;;
38318;SDS011;24121;53.536;10.224;2024-03-07T20:08:05;25.17;;;16.65;;
38318;SDS011;24121;53.536;10.224;2024-03-07T20:10:31;27.58;;;15.10;;
38318;SDS011;24121;53.536;10.224;2024-03-07T20:12:57;24.95;;;16.80;;
38318;SDS011;24121;53.536;10.224;2024-03-07T20:15:22;23.58;;;15.52;;
38318;SDS011;24121;53.536;10.224;2024-03-07T20:17:49;25.00;;;16.83;;
38318;SDS011;24121;53.536;10.224;2024-03-07T20:20:14;24.08;;;16.55;;
38318;SDS011;24121;53.536;10.224;2024-03-07T20:22:46;24.17;;;15.35;;
38318;SDS011;24121;53.536;10.224;2024-03-07T20:25:15;23.63;;;14.63;;
38318;SDS011;24121;53.536;10.224;2024-03-07T20:27:45;26.35;;;16.40;;
38318;SDS011;24121;53.536;10.224;2024-03-07T20:30:13;22.73;;;15.68;;
38318;SDS011;24121;53.536;10.224;2024-03-07T20:32:44;21.73;;;15.00;;
38318;SDS011;24121;53.536;10.224;2024-03-07T20:35:11;23.10;;;15.73;;
38318;SDS011;24121;53.536;10.224;2024-03-07T20:37:37;19.63;;;13.40;;
38318;SDS011;24121;53.536;10.224;2024-03-07T20:40:03;23.63;;;15.10;;
38318;SDS011;24121;53.536;10.224;2024-03-07T20:42:35;21.55;;;14.73;;
38318;SDS011;24121;53.536;10.224;2024-03-07T20:45:06;22.55;;;14.98;;
38318;SDS011;24121;53.536;10.224;2024-03-07T20:47:34;22.75;;;14.75;;
38318;SDS011;24121;53.536;10.224;2024-03-07T20:50:03;25.58;;;14.85;;
38318;SDS011;24121;53.536;10.224;2024-03-07T20:54:58;20.50;;;13.70;;
38318;SDS011;24121;53.536;10.224;2024-03-07T20:57:29;22.30;;;13.90;;
38318;SDS011;24121;53.536;10.224;2024-03-07T20:59:55;23.65;;;15.40;;
38318;SDS011;24121;53.536;10.224;2024-03-07T21:02:20;22.52;;;14.40;;
38318;SDS011;24121;53.536;10.224;2024-03-07T21:04:45;21.02;;;14.95;;
38318;SDS011;24121;53.536;10.224;2024-03-07T21:07:11;24.42;;;14.93;;
38318;SDS011;24121;53.536;10.224;2024-03-07T21:09:37;21.00;;;14.10;;
38318;SDS011;24121;53.536;10.224;2024-03-07T21:12:02;23.25;;;15.13;;
38318;SDS011;24121;53.536;10.224;2024-03-07T21:14:28;22.33;;;14.10;;
38318;SDS011;24121;53.536;10.224;2024-03-07T21:16:55;24.65;;;15.07;;
38318;SDS011;24121;53.536;10.224;2024-03-07T21:19:21;23.40;;;14.10;;
38318;SDS011;24121;53.536;10.224;2024-03-07T21:21:46;21.90;;;14.77;;
38318;SDS011;24121;53.536;10.224;2024-03-07T21:24:12;21.40;;;14.82;;
38318;SDS011;24121;53.536;10.224;2024-03-07T21:26:38;19.67;;;13.43;;
38318;SDS011;24121;53.536;10.224;2024-03-07T21:29:03;20.58;;;13.43;;
38318;SDS011;24121;53.536;10.224;2024-03-07T21:31:30;22.15;;;13.98;;
38318;SDS011;24121;53.536;10.224;2024-03-07T21:33:55;21.20;;;14.27;;
38318;SDS011;24121;53.536;10.224;2024-03-07T21:36:20;22.33;;;14.70;;
38318;SDS011;24121;53.536;10.224;2024-03-07T21:38:46;21.73;;;13.77;;
38318;SDS011;24121;53.536;10.224;2024-03-07T21:41:11;21.77;;;13.95;;
38318;SDS011;24121;53.536;10.224;2024-03-07T21:43:39;23.52;;;14.68;;
38318;SDS011;24121;53.536;10.224;2024-03-07T21:46:04;18.60;;;13.25;;
38318;SDS011;24121;53.536;10.224;2024-03-07T21:48:31;20.45;;;12.75;;
38318;SDS011;24121;53.536;10.224;2024-03-07T21:50:56;23.95;;;15.13;;
38318;SDS011;24121;53.536;10.224;2024-03-07T21:53:23;22.90;;;13.98;;
38318;SDS011;24121;53.536;10.224;2024-03-07T21:55:49;21.10;;;13.05;;
38318;SDS011;24121;53.536;10.224;2024-03-07T21:58:14;21.98;;;13.52;;
38318;SDS011;24121;53.536;10.224;2024-03-07T22:00:41;21.20;;;13.77;;
38318;SDS011;24121;53.536;10.224;2024-03-07T22:03:06;19.77;;;13.88;;
38318;SDS011;24121;53.536;10.224;2024-03-07T22:05:33;22.25;;;13.60;;
38318;SDS011;24121;53.536;10.224;2024-03-07T22:07:59;21.80;;;14.40;;
38318;SDS011;24121;53.536;10.224;2024-03-07T22:10:24;19.38;;;12.90;;
38318;SDS011;24121;53.536;10.224;2024-03-07T22:12:50;20.02;;;13.25;;
38318;SDS011;24121;53.536;10.224;2024-03-07T22:15:17;25.85;;;14.48;;
38318;SDS011;24121;53.536;10.224;2024-03-07T22:17:45;22.67;;;13.73;;
38318;SDS011;24121;53.536;10.224;2024-03-07T22:20:11;21.20;;;13.73;;
38318;SDS011;24121;53.536;10.224;2024-03-07T22:22:48;21.05;;;13.50;;
38318;SDS011;24121;53.536;10.224;2024-03-07T22:25:13;19.55;;;13.38;;
38318;SDS011;24121;53.536;10.224;2024-03-07T22:27:39;21.98;;;14.50;;
38318;SDS011;24121;53.536;10.224;2024-03-07T22:30:05;19.42;;;14.02;;
38318;SDS011;24121;53.536;10.224;2024-03-07T22:32:34;22.17;;;14.05;;
38318;SDS011;24121;53.536;10.224;2024-03-07T22:35:01;20.20;;;14.05;;
38318;SDS011;24121;53.536;10.224;2024-03-07T22:37:36;21.23;;;13.57;;
38318;SDS011;24121;53.536;10.224;2024-03-07T22:40:02;21.23;;;13.85;;